createdAt,value
2022-11-01T00:01:06.954Z,64.45
2022-11-01T00:03:34.009Z,63.96
2022-11-01T00:06:00.692Z,64.28
2022-11-01T00:08:27.515Z,65.40
2022-11-01T00:11:01.446Z,64.78
2022-11-01T00:13:28.088Z,64.61
2022-11-01T00:15:55.034Z,65.13
2022-11-01T00:18:21.699Z,65.85
2022-11-01T00:20:48.429Z,65.04
2022-11-01T00:23:15.329Z,66.09
2022-11-01T00:25:41.982Z,65.64
2022-11-01T00:28:08.748Z,64.65
2022-11-01T00:30:39.258Z,64.42
2022-11-01T00:33:06.251Z,64.17
2022-11-01T00:35:33.079Z,64.97
2022-11-01T00:38:00.551Z,64.07
2022-11-01T00:40:27.541Z,63.84
2022-11-01T00:42:54.199Z,64.48
2022-11-01T00:45:21.250Z,64.48
2022-11-01T00:47:48.205Z,64.64
2022-11-01T00:50:14.982Z,65.16
2022-11-01T00:52:42.980Z,64.81
2022-11-01T00:55:09.774Z,64.31
2022-11-01T00:57:36.397Z,64.49
2022-11-01T01:00:04.446Z,64.03
2022-11-01T01:02:31.176Z,64.29
2022-11-01T01:04:57.924Z,64.33
2022-11-01T01:07:24.817Z,64.13
2022-11-01T01:09:52.045Z,64.37
2022-11-01T01:12:18.674Z,64.54
2022-11-01T01:14:45.553Z,64.65
2022-11-01T01:17:12.201Z,65.22
2022-11-01T01:19:38.844Z,64.56
2022-11-01T01:22:05.800Z,65.08
2022-11-01T01:24:32.562Z,65.35
2022-11-01T01:27:00.335Z,65.00
2022-11-01T01:29:27.321Z,65.45
2022-11-01T01:31:54.987Z,65.09
2022-11-01T01:34:21.667Z,65.39
2022-11-01T01:36:48.575Z,65.60
2022-11-01T01:39:15.191Z,67.09
2022-11-01T01:41:56.794Z,66.13
2022-11-01T01:44:41.889Z,65.98
2022-11-01T01:47:09.212Z,65.68
2022-11-01T01:49:38.725Z,66.48
2022-11-01T01:52:09.109Z,65.34
2022-11-01T01:54:35.999Z,64.74
2022-11-01T01:57:02.631Z,64.64
2022-11-01T01:59:29.258Z,64.35
2022-11-01T02:01:56.291Z,65.36
2022-11-01T02:04:28.913Z,65.29
2022-11-01T02:06:55.654Z,64.31
2022-11-01T02:09:22.506Z,64.76
2022-11-01T02:11:49.858Z,64.46
2022-11-01T02:14:16.920Z,65.10
2022-11-01T02:16:48.394Z,64.87
2022-11-01T02:19:15.274Z,64.25
2022-11-01T02:21:44.257Z,64.44
2022-11-01T02:24:19.703Z,64.93
2022-11-01T02:27:01.991Z,64.61
2022-11-01T02:29:28.701Z,64.97
2022-11-01T02:31:55.587Z,64.64
2022-11-01T02:34:24.592Z,64.08
2022-11-01T02:37:10.216Z,64.19
2022-11-01T02:39:38.735Z,64.40
2022-11-01T02:42:05.690Z,64.96
2022-11-01T02:44:34.015Z,64.34
2022-11-01T02:47:01.482Z,64.66
2022-11-01T02:49:29.230Z,65.48
2022-11-01T02:51:55.918Z,65.05
2022-11-01T02:54:26.964Z,64.80
2022-11-01T02:56:53.600Z,64.36
2022-11-01T02:59:23.503Z,65.10
2022-11-01T03:01:52.185Z,65.24
2022-11-01T03:04:19.022Z,65.41
2022-11-01T03:06:46.953Z,65.44
2022-11-01T03:09:13.915Z,64.42
2022-11-01T03:11:49.874Z,64.79
2022-11-01T03:14:35.472Z,64.46
2022-11-01T03:17:02.084Z,65.65
2022-11-01T03:19:35.013Z,67.36
2022-11-01T03:22:15.887Z,65.94
2022-11-01T03:24:50.532Z,66.91
2022-11-01T03:27:23.495Z,66.41
2022-11-01T03:29:57.163Z,65.88
2022-11-01T03:32:25.178Z,65.21
2022-11-01T03:34:52.076Z,64.66
2022-11-01T03:37:20.238Z,65.28
2022-11-01T03:39:47.396Z,64.95
2022-11-01T03:42:15.779Z,65.55
2022-11-01T03:44:44.197Z,64.72
2022-11-01T03:47:10.810Z,64.57
2022-11-01T03:49:37.715Z,65.17
2022-11-01T03:52:04.423Z,65.75
2022-11-01T03:54:31.192Z,65.14
2022-11-01T03:56:58.139Z,65.25
2022-11-01T03:59:24.873Z,66.38
2022-11-01T04:01:52.729Z,65.35
2022-11-01T04:04:19.833Z,65.67
2022-11-01T04:06:46.452Z,66.29
2022-11-01T04:09:13.263Z,65.95
2022-11-01T04:11:40.161Z,66.25
2022-11-01T04:14:26.246Z,64.95
2022-11-01T04:17:11.956Z,66.38
2022-11-01T04:19:57.428Z,67.11
2022-11-01T04:22:24.736Z,67.56
2022-11-01T04:24:51.551Z,66.84
2022-11-01T04:27:18.177Z,65.31
2022-11-01T04:29:45.133Z,65.37
2022-11-01T04:32:11.795Z,66.93
2022-11-01T04:34:44.635Z,66.24
2022-11-01T04:37:11.761Z,66.40
2022-11-01T04:39:38.490Z,65.49
2022-11-01T04:42:05.438Z,65.25
2022-11-01T04:44:32.363Z,65.52
2022-11-01T04:46:58.995Z,65.22
2022-11-01T04:49:25.630Z,64.81
2022-11-01T04:51:52.570Z,64.46
2022-11-01T04:54:19.187Z,66.15
2022-11-01T04:56:45.810Z,64.99
2022-11-01T04:59:12.671Z,64.56
2022-11-01T05:01:39.380Z,64.30
2022-11-01T05:04:06.173Z,64.44
2022-11-01T05:06:33.115Z,64.50
2022-11-01T05:08:59.827Z,64.78
2022-11-01T05:11:26.619Z,64.54
2022-11-01T05:13:55.894Z,65.16
2022-11-01T05:16:22.548Z,63.96
2022-11-01T05:18:49.279Z,64.47
2022-11-01T05:21:16.231Z,64.95
2022-11-01T05:23:42.850Z,64.83
2022-11-01T05:26:09.575Z,64.88
2022-11-01T05:28:36.826Z,65.32
2022-11-01T05:31:03.475Z,65.01
2022-11-01T05:33:30.154Z,65.16
2022-11-01T05:36:00.149Z,66.70
2022-11-01T05:38:26.779Z,66.07
2022-11-01T05:40:53.443Z,65.74
2022-11-01T05:43:20.365Z,64.89
2022-11-01T05:45:46.982Z,64.76
2022-11-01T05:48:13.644Z,65.69
2022-11-01T05:50:40.560Z,66.47
2022-11-01T05:53:07.526Z,66.62
2022-11-01T05:55:34.386Z,65.96
2022-11-01T05:58:01.326Z,65.82
2022-11-01T06:00:28.066Z,65.54
2022-11-01T06:02:57.543Z,65.95
2022-11-01T06:05:24.368Z,65.68
2022-11-01T06:07:51.006Z,65.24
2022-11-01T06:10:17.975Z,65.07
2022-11-01T06:12:44.670Z,65.30
2022-11-01T06:15:11.380Z,65.58
2022-11-01T06:17:38.318Z,65.92
2022-11-01T06:20:05.606Z,65.51
2022-11-01T06:22:34.434Z,66.12
2022-11-01T06:25:01.363Z,66.24
2022-11-01T06:27:28.350Z,67.65
2022-11-01T06:29:55.346Z,66.26
2022-11-01T06:32:22.282Z,66.60
2022-11-01T06:34:48.918Z,65.92
2022-11-01T06:37:15.635Z,66.07
2022-11-01T06:39:42.573Z,65.68
2022-11-01T06:42:09.365Z,66.08
2022-11-01T06:44:36.058Z,65.97
2022-11-01T06:47:03.022Z,64.63
2022-11-01T06:49:30.543Z,65.31
2022-11-01T06:51:57.513Z,65.22
2022-11-01T06:54:24.485Z,66.75
2022-11-01T06:56:51.158Z,65.38
2022-11-01T06:59:17.830Z,64.25
2022-11-01T07:01:44.920Z,65.18
2022-11-01T07:06:43.244Z,65.86
2022-11-01T07:09:10.473Z,65.42
2022-11-01T07:11:37.132Z,65.07
2022-11-01T07:14:04.069Z,65.04
2022-11-01T07:16:31.536Z,65.09
2022-11-01T07:18:58.201Z,65.23
2022-11-01T07:21:24.883Z,65.02
2022-11-01T07:23:53.752Z,65.26
2022-11-01T07:26:20.630Z,64.31
2022-11-01T07:28:47.322Z,64.55
2022-11-01T07:31:14.385Z,64.11
2022-11-01T07:33:41.076Z,64.97
2022-11-01T07:36:08.037Z,65.46
2022-11-01T07:38:34.948Z,64.49
2022-11-01T07:41:03.411Z,63.86
2022-11-01T07:43:30.094Z,64.71
2022-11-01T07:46:00.869Z,64.48
2022-11-01T07:48:27.576Z,64.21
2022-11-01T07:50:55.665Z,64.83
2022-11-01T07:53:22.542Z,64.72
2022-11-01T07:55:49.198Z,63.90
2022-11-01T07:58:16.697Z,64.34
2022-11-01T08:00:44.462Z,63.91
2022-11-01T08:03:12.781Z,65.07
2022-11-01T08:05:39.484Z,63.77
2022-11-01T08:08:06.901Z,65.07
2022-11-01T08:10:34.422Z,63.82
2022-11-01T08:13:21.323Z,63.64
2022-11-01T08:15:48.480Z,63.88
2022-11-01T08:18:15.302Z,63.53
2022-11-01T08:20:42.348Z,64.03
2022-11-01T08:23:09.402Z,63.64
2022-11-01T08:25:36.357Z,62.99
2022-11-01T08:28:04.052Z,64.89
2022-11-01T08:30:31.239Z,65.18
2022-11-01T08:33:02.673Z,63.68
2022-11-01T08:35:29.932Z,64.17
2022-11-01T08:37:58.979Z,64.78
2022-11-01T08:40:25.895Z,64.83
2022-11-01T08:42:52.511Z,65.62
2022-11-01T08:45:19.418Z,65.22
2022-11-01T08:47:46.111Z,64.59
2022-11-01T08:50:13.580Z,64.82
2022-11-01T08:52:40.837Z,65.02
2022-11-01T08:55:08.092Z,64.49
2022-11-01T08:57:35.728Z,65.02
2022-11-01T09:00:03.595Z,65.13
2022-11-01T09:02:30.460Z,64.42
2022-11-01T09:04:57.117Z,64.59
2022-11-01T09:07:24.074Z,64.87
2022-11-01T09:09:50.736Z,63.88
2022-11-01T09:12:22.002Z,64.44
2022-11-01T09:14:51.453Z,63.37
2022-11-01T09:17:18.180Z,62.98
2022-11-01T09:19:44.829Z,63.75
2022-11-01T09:22:11.850Z,63.44
2022-11-01T09:24:38.518Z,64.01
2022-11-01T09:27:06.881Z,63.58
2022-11-01T09:32:06.764Z,64.55
2022-11-01T09:34:33.970Z,63.46
2022-11-01T09:37:00.697Z,63.53
2022-11-01T09:39:27.560Z,64.18
2022-11-01T09:42:04.463Z,64.40
2022-11-01T09:44:38.656Z,64.06
2022-11-01T09:47:08.196Z,63.77
2022-11-01T09:49:38.530Z,64.66
2022-11-01T09:52:05.743Z,64.59
2022-11-01T09:54:32.390Z,64.41
2022-11-01T09:57:10.849Z,64.50
2022-11-01T09:59:41.142Z,64.15
2022-11-01T10:02:20.351Z,63.85
2022-11-01T10:04:59.326Z,64.43
2022-11-01T10:07:26.086Z,63.89
2022-11-01T10:09:58.438Z,63.77
2022-11-01T10:12:28.266Z,64.15
2022-11-01T10:15:13.824Z,64.00
2022-11-01T10:18:02.709Z,63.81
2022-11-01T10:20:30.622Z,63.20
2022-11-01T10:22:57.254Z,63.16
2022-11-01T10:25:25.018Z,62.25
2022-11-01T10:28:10.747Z,62.77
2022-11-01T10:30:38.522Z,62.03
2022-11-01T10:33:14.934Z,62.12
2022-11-01T10:35:42.586Z,62.89
2022-11-01T10:38:45.388Z,63.46
2022-11-01T10:41:22.793Z,63.70
2022-11-01T10:43:51.627Z,62.82
2022-11-01T10:46:20.137Z,62.62
2022-11-01T10:48:57.585Z,62.80
2022-11-01T10:51:27.787Z,62.92
2022-11-01T10:53:56.012Z,62.56
2022-11-01T10:56:28.166Z,62.98
2022-11-01T10:59:02.288Z,61.70
2022-11-01T11:01:31.998Z,62.59
2022-11-01T11:04:15.671Z,64.34
2022-11-01T11:06:42.823Z,63.15
2022-11-01T11:09:27.173Z,63.04
2022-11-01T11:11:55.562Z,63.80
2022-11-01T11:14:22.301Z,63.66
2022-11-01T11:16:50.378Z,64.20
2022-11-01T11:19:25.225Z,64.81
2022-11-01T11:21:53.193Z,64.32
2022-11-01T11:24:21.197Z,64.07
2022-11-01T11:26:53.022Z,63.93
2022-11-01T11:29:35.247Z,64.47
2022-11-01T11:32:02.123Z,64.59
2022-11-01T11:34:30.062Z,63.53
2022-11-01T11:36:57.047Z,63.03
2022-11-01T11:39:24.450Z,63.43
2022-11-01T11:41:51.362Z,63.40
2022-11-01T11:44:55.418Z,64.52
2022-11-01T11:47:24.580Z,63.18
2022-11-01T11:49:53.941Z,62.86
2022-11-01T11:52:26.744Z,63.41
2022-11-01T11:54:55.693Z,61.95
2022-11-01T11:57:26.882Z,61.70
2022-11-01T12:00:06.580Z,61.55
2022-11-01T12:02:39.288Z,62.34
2022-11-01T12:05:09.493Z,61.13
2022-11-01T12:07:37.747Z,59.54
2022-11-01T12:10:05.335Z,60.70
2022-11-01T12:12:33.478Z,59.92
2022-11-01T12:15:00.538Z,60.47
2022-11-01T12:17:33.277Z,60.37
2022-11-01T12:20:01.097Z,61.45
2022-11-01T12:22:32.335Z,60.73
2022-11-01T12:25:00.652Z,60.78
2022-11-01T12:27:27.536Z,60.40
2022-11-01T12:30:02.831Z,60.06
2022-11-01T12:32:35.246Z,62.91
2022-11-01T12:35:02.953Z,61.01
2022-11-01T12:37:34.385Z,60.46
2022-11-01T12:40:08.164Z,59.98
2022-11-01T12:42:41.820Z,60.29
2022-11-01T12:45:10.800Z,60.08
2022-11-01T12:47:39.028Z,59.79
2022-11-01T12:50:22.519Z,60.28
2022-11-01T12:53:01.000Z,60.44
2022-11-01T12:55:30.943Z,60.41
2022-11-01T12:57:57.903Z,60.44
2022-11-01T13:00:24.710Z,60.83
2022-11-01T13:02:54.503Z,61.11
2022-11-01T13:05:22.361Z,59.92
2022-11-01T13:07:55.876Z,59.41
2022-11-01T13:10:36.896Z,59.69
2022-11-01T13:13:07.952Z,59.61
2022-11-01T13:15:53.971Z,59.92
2022-11-01T13:18:21.028Z,58.90
2022-11-01T13:21:00.088Z,60.39
2022-11-01T13:23:42.084Z,60.24
2022-11-01T13:26:17.429Z,60.52
2022-11-01T13:28:50.421Z,60.02
2022-11-01T13:31:23.259Z,59.71
2022-11-01T13:33:56.144Z,59.86
2022-11-01T13:36:30.223Z,58.97
2022-11-01T13:39:01.608Z,60.38
2022-11-01T13:41:46.218Z,59.87
2022-11-01T13:44:14.754Z,59.45
2022-11-01T13:47:01.191Z,60.35
2022-11-01T13:49:41.649Z,59.61
2022-11-01T13:52:19.220Z,60.31
2022-11-01T13:55:02.490Z,59.71
2022-11-01T13:57:29.582Z,60.49
2022-11-01T14:00:00.363Z,60.76
2022-11-01T14:02:27.135Z,59.95
2022-11-01T14:05:00.847Z,60.75
2022-11-01T14:07:53.308Z,61.65
2022-11-01T14:10:22.031Z,61.72
2022-11-01T14:12:59.700Z,61.04
2022-11-01T14:15:34.306Z,60.92
2022-11-01T14:18:04.100Z,60.35
2022-11-01T14:20:42.245Z,60.61
2022-11-01T14:23:27.807Z,59.76
2022-11-01T14:26:13.634Z,60.69
2022-11-01T14:28:47.864Z,60.62
2022-11-01T14:31:15.177Z,60.12
2022-11-01T14:33:41.895Z,60.20
2022-11-01T14:36:12.967Z,59.33
2022-11-01T14:38:50.867Z,59.51
2022-11-01T14:41:17.590Z,60.67
2022-11-01T14:43:45.789Z,60.88
2022-11-01T14:46:13.454Z,60.74
2022-11-01T14:48:44.393Z,60.16
2022-11-01T14:51:11.330Z,60.28
2022-11-01T14:53:40.242Z,59.85
2022-11-01T14:56:12.615Z,59.04
2022-11-01T14:58:39.846Z,60.61
2022-11-01T15:01:07.808Z,60.61
2022-11-01T15:03:34.687Z,60.72
2022-11-01T15:06:01.607Z,62.04
2022-11-01T15:08:32.658Z,61.53
2022-11-01T15:11:03.270Z,61.19
2022-11-01T15:13:32.372Z,61.79
2022-11-01T15:16:26.869Z,61.47
2022-11-01T15:18:57.805Z,60.88
2022-11-01T15:21:30.846Z,59.88
2022-11-01T15:23:59.347Z,60.36
2022-11-01T15:26:32.463Z,60.70
2022-11-01T15:29:03.346Z,60.60
2022-11-01T15:31:32.802Z,60.78
2022-11-01T15:34:03.257Z,60.55
2022-11-01T15:36:34.288Z,60.84
2022-11-01T15:39:02.564Z,61.72
2022-11-01T15:41:33.260Z,61.20
2022-11-01T15:44:01.292Z,61.60
2022-11-01T15:46:32.999Z,60.98
2022-11-01T15:49:01.324Z,61.41
2022-11-01T15:51:29.399Z,61.51
2022-11-01T15:54:01.247Z,61.07
2022-11-01T15:56:33.112Z,61.07
2022-11-01T16:01:31.780Z,61.00
2022-11-01T16:04:06.378Z,61.35
2022-11-01T16:07:02.514Z,61.97
2022-11-01T16:09:34.100Z,61.87
2022-11-01T16:12:01.426Z,61.47
2022-11-01T16:14:30.632Z,62.41
2022-11-01T16:17:00.524Z,62.71
2022-11-01T16:19:48.411Z,61.50
2022-11-01T16:22:35.150Z,61.53
2022-11-01T16:25:05.803Z,61.66
2022-11-01T16:27:35.790Z,62.69
2022-11-01T16:30:10.656Z,62.32
2022-11-01T16:32:37.659Z,62.10
2022-11-01T16:35:22.816Z,62.62
2022-11-01T16:37:53.321Z,61.94
2022-11-01T16:40:24.225Z,61.73
2022-11-01T16:42:53.583Z,61.50
2022-11-01T16:45:20.443Z,61.69
2022-11-01T16:47:48.460Z,61.56
2022-11-01T16:50:15.943Z,60.96
2022-11-01T16:52:42.942Z,61.43
2022-11-01T16:55:14.521Z,61.44
2022-11-01T16:57:41.560Z,61.45
2022-11-01T17:00:12.177Z,60.88
2022-11-01T17:02:39.371Z,61.53
2022-11-01T17:05:10.348Z,62.04
2022-11-01T17:07:38.235Z,62.24
2022-11-01T17:10:15.223Z,62.61
2022-11-01T17:12:42.289Z,62.63
2022-11-01T17:15:12.187Z,61.86
2022-11-01T17:17:39.206Z,62.22
2022-11-01T17:20:06.758Z,61.92
2022-11-01T17:22:34.370Z,61.95
2022-11-01T17:25:02.577Z,63.12
2022-11-01T17:27:34.877Z,62.73
2022-11-01T17:30:01.710Z,63.01
2022-11-01T17:32:28.815Z,62.71
2022-11-01T17:34:58.993Z,61.87
2022-11-01T17:37:25.885Z,61.84
2022-11-01T17:39:52.885Z,61.85
2022-11-01T17:42:20.075Z,62.05
2022-11-01T17:44:48.310Z,62.04
2022-11-01T17:47:15.670Z,62.79
2022-11-01T17:49:43.171Z,62.60
2022-11-01T17:52:11.516Z,62.00
2022-11-01T17:54:39.859Z,61.73
2022-11-01T17:57:07.394Z,61.91
2022-11-01T17:59:35.519Z,62.61
2022-11-01T18:02:05.118Z,62.51
2022-11-01T18:04:36.572Z,62.67
2022-11-01T18:07:03.582Z,61.74
2022-11-01T18:09:30.394Z,62.26
2022-11-01T18:12:05.939Z,61.65
2022-11-01T18:14:36.210Z,62.52
2022-11-01T18:17:18.065Z,61.69
2022-11-01T18:19:56.190Z,62.91
2022-11-01T18:22:30.922Z,62.27
2022-11-01T18:24:59.829Z,62.50
2022-11-01T18:27:33.951Z,62.47
2022-11-01T18:30:14.371Z,62.87
2022-11-01T18:32:51.933Z,62.06
2022-11-01T18:35:26.051Z,62.40
2022-11-01T18:38:17.975Z,63.24
2022-11-01T18:40:52.866Z,62.88
2022-11-01T18:43:21.571Z,62.77
2022-11-01T18:46:11.557Z,62.58
2022-11-01T18:48:37.840Z,62.05
2022-11-01T18:51:06.246Z,62.37
2022-11-01T18:53:33.749Z,62.54
2022-11-01T18:56:22.697Z,62.42
2022-11-01T18:58:51.666Z,62.67
2022-11-01T19:01:40.365Z,62.83
2022-11-01T19:04:17.146Z,62.76
2022-11-01T19:06:47.028Z,61.91
2022-11-01T19:09:28.028Z,62.00
2022-11-01T19:12:11.816Z,62.38
2022-11-01T19:14:40.316Z,61.46
2022-11-01T19:17:23.849Z,60.98
2022-11-01T19:19:51.844Z,61.60
2022-11-01T19:22:27.226Z,61.85
2022-11-01T19:24:54.519Z,61.76
2022-11-01T19:27:22.590Z,61.93
2022-11-01T19:29:53.989Z,62.84
2022-11-01T19:32:25.236Z,62.44
2022-11-01T19:34:53.574Z,62.38
2022-11-01T19:37:33.066Z,62.15
2022-11-01T19:40:05.175Z,62.61
2022-11-01T19:42:32.354Z,62.12
2022-11-01T19:45:11.449Z,61.56
2022-11-01T19:47:40.397Z,62.07
2022-11-01T19:50:14.338Z,62.21
2022-11-01T19:52:46.877Z,61.92
2022-11-01T19:55:33.151Z,61.64
2022-11-01T19:58:02.096Z,60.47
2022-11-01T20:00:35.461Z,61.46
2022-11-01T20:03:02.701Z,60.54
2022-11-01T20:05:36.823Z,61.31
2022-11-01T20:08:31.720Z,60.97
2022-11-01T20:10:58.850Z,60.21
2022-11-01T20:13:26.453Z,60.88
2022-11-01T20:15:54.867Z,61.01
2022-11-01T20:18:22.247Z,60.83
2022-11-01T20:20:54.062Z,60.91
2022-11-01T20:23:26.636Z,60.74
2022-11-01T20:25:54.356Z,60.62
2022-11-01T20:28:21.858Z,60.90
2022-11-01T20:30:53.774Z,60.69
2022-11-01T20:33:23.180Z,60.46
2022-11-01T20:35:51.335Z,60.79
2022-11-01T20:40:46.113Z,60.25
2022-11-01T20:43:13.756Z,60.28
2022-11-01T20:45:41.615Z,60.68
2022-11-01T20:48:10.447Z,60.25
2022-11-01T20:50:42.831Z,60.11
2022-11-01T20:53:10.428Z,60.34
2022-11-01T20:55:37.712Z,60.43
2022-11-01T20:58:05.058Z,60.81
2022-11-01T21:00:32.958Z,59.92
2022-11-01T21:03:13.692Z,60.10
2022-11-01T21:05:42.452Z,60.14
2022-11-01T21:08:09.557Z,60.96
2022-11-01T21:10:41.433Z,61.00
2022-11-01T21:13:21.414Z,60.71
2022-11-01T21:15:48.782Z,60.38
2022-11-01T21:18:17.939Z,61.78
2022-11-01T21:20:49.269Z,60.30
2022-11-01T21:23:16.560Z,60.41
2022-11-01T21:25:44.636Z,61.00
2022-11-01T21:28:26.720Z,61.39
2022-11-01T21:30:53.826Z,61.10
2022-11-01T21:33:28.195Z,60.28
2022-11-01T21:35:57.497Z,60.77
2022-11-01T21:38:40.901Z,61.17
2022-11-01T21:41:16.541Z,60.14
2022-11-01T21:43:43.355Z,60.01
2022-11-01T21:46:14.552Z,60.46
2022-11-01T21:48:41.384Z,60.30
2022-11-01T21:51:08.033Z,60.55
2022-11-01T21:53:35.488Z,60.22
2022-11-01T21:56:02.237Z,60.02
2022-11-01T21:58:29.136Z,59.57
2022-11-01T22:00:56.170Z,60.27
2022-11-01T22:03:23.812Z,60.34
2022-11-01T22:05:50.657Z,60.28
2022-11-01T22:08:17.589Z,59.77
2022-11-01T22:10:44.758Z,60.43
2022-11-01T22:13:22.639Z,61.02
2022-11-01T22:15:50.099Z,60.64
2022-11-01T22:18:19.860Z,61.48
2022-11-01T22:20:51.250Z,60.60
2022-11-01T22:23:18.338Z,60.36
2022-11-01T22:25:45.210Z,61.50
2022-11-01T22:28:12.336Z,61.27
2022-11-01T22:30:39.015Z,61.55
2022-11-01T22:33:06.141Z,60.88
2022-11-01T22:35:33.567Z,61.74
2022-11-01T22:38:00.426Z,61.82
2022-11-01T22:40:27.149Z,61.15
2022-11-01T22:42:55.076Z,62.22
2022-11-01T22:45:21.733Z,60.50
2022-11-01T22:47:48.418Z,60.25
2022-11-01T22:50:18.862Z,61.00
2022-11-01T22:52:45.837Z,60.47
2022-11-01T22:55:15.521Z,61.18
2022-11-01T22:57:46.885Z,60.25
2022-11-01T23:00:33.391Z,61.61
2022-11-01T23:03:20.733Z,61.79
2022-11-01T23:05:47.871Z,61.19
2022-11-01T23:08:22.190Z,60.79
2022-11-01T23:10:49.858Z,60.99
2022-11-01T23:13:37.802Z,61.01
2022-11-01T23:16:10.888Z,60.57
2022-11-01T23:18:37.878Z,60.68
2022-11-01T23:21:08.182Z,60.65
2022-11-01T23:23:40.513Z,60.72
2022-11-01T23:26:08.640Z,60.64
2022-11-01T23:28:37.205Z,60.61
2022-11-01T23:31:04.865Z,60.60
2022-11-01T23:33:38.150Z,60.57
2022-11-01T23:36:05.145Z,60.43
2022-11-01T23:38:35.411Z,60.49
2022-11-01T23:41:02.241Z,60.61
2022-11-01T23:43:39.038Z,60.28
2022-11-01T23:46:06.149Z,60.61
2022-11-01T23:48:32.905Z,60.18
2022-11-01T23:50:59.705Z,59.70
2022-11-01T23:53:32.520Z,59.97
2022-11-01T23:55:59.281Z,60.15
